Flight Track Log - Related Links

Times and Time Zones

All times are in EDT time to prevent confusion due to time zone crossing. See the DLH572 flight status page for this flight to view local times or setup timezone preferences in your user account.

Time Position Orientation Groundspeed Altitude Reporting Facility
EDT Latitude Longitude Course Direction KTS MPH feet Rate Location/Type
Tue 04:42:57 PM 49.9900 8.5260 180° South 170 196 800  Level FlightAware ADS-B
Tue 04:43:32 PM 49.9690 8.5270 178° South 170 196 1,400 1,309 Climbing FlightAware ADS-B
Tue 04:43:52 PM 49.9500 8.5290 176° South 166 191 2,000 1,200 Climbing FlightAware ADS-B
Tue 04:44:32 PM 49.9050 8.5320 178° South 227 261 2,600 1,114 Climbing FlightAware ADS-B
Tue 04:45:02 PM 49.8720 8.5350 177° South 255 293 3,300 1,733 Climbing FlightAware ADS-B
Tue 04:45:17 PM 49.8540 8.5360 178° South 258 297 3,900 2,400 Climbing FlightAware ADS-B
Tue 04:45:42 PM 49.8250 8.5380 177° South 259 298 4,900 2,509 Climbing FlightAware ADS-B
Tue 04:46:12 PM 49.7880 8.5400 178° South 262 302 6,200 2,618 Climbing FlightAware ADS-B
Tue 04:46:37 PM 49.7580 8.5380 182° South 261 300 7,300 2,400 Climbing FlightAware ADS-B
Tue 04:47:07 PM 49.7200 8.5330 185° South 260 299 8,400 2,267 Climbing FlightAware ADS-B
Tue 04:47:22 PM 49.7020 8.5310 184° South 261 300 9,000 2,400 Climbing FlightAware ADS-B
Tue 04:47:47 PM 49.6720 8.5260 186° South 261 300 10,000 1,457 Climbing FlightAware ADS-B
Tue 04:48:32 PM 49.6120 8.5190 184° South 310 357 10,700 825 Climbing FlightAware ADS-B
Tue 04:49:07 PM 49.5620 8.5120 185° South 340 391 11,100 1,350 Climbing FlightAware ADS-B
Tue 04:49:52 PM 49.4840 8.5020 185° South 358 412 12,500 1,880 Climbing FlightAware ADS-B
Tue 04:51:37 PM 49.3070 8.4830 184° South 370 426 15,800 1,698 Climbing FlightAware ADS-B
Tue 04:54:00 PM 49.0237 8.6243 162° South  Level Estimated
Tue 04:54:17 PM 49.0170 8.4760 162° South 399 459 20,000  Level FlightAware ADS-B
Tue 04:55:02 PM 48.9290 8.4730 181° South 403 464 21,200 1,482 Climbing FlightAware ADS-B
Tue 04:55:42 PM 48.8540 8.4710 181° South 415 478 22,100 1,412 Climbing FlightAware ADS-B
Tue 04:56:27 PM 48.7710 8.4680 181° South 415 478 23,200 1,341 Climbing FlightAware ADS-B
Tue 04:57:07 PM 48.6910 8.4660 181° South 421 484 24,000 1,200 Climbing FlightAware ADS-B
Tue 04:57:47 PM 48.6130 8.4640 181° South 417 480 24,800 1,200 Climbing FlightAware ADS-B
Tue 04:58:32 PM 48.5250 8.4610 181° South 420 483 25,700 1,059 Climbing FlightAware ADS-B
Tue 04:59:12 PM 48.4450 8.4580 181° South 434 499 26,300 918 Climbing FlightAware ADS-B
Tue 04:59:57 PM 48.3540 8.4560 181° South 433 498 27,000 847 Climbing FlightAware ADS-B
Tue 05:00:37 PM 48.2770 8.4530 181° South 436 502 27,500 975 Climbing FlightAware ADS-B
Tue 05:01:17 PM 48.1880 8.4510 181° South 437 503 28,300 1,059 Climbing FlightAware ADS-B
Tue 05:02:02 PM 48.0960 8.4480 181° South 453 521 29,000 975 Climbing FlightAware ADS-B
Tue 05:02:37 PM 48.0250 8.4460 181° South 449 517 29,600 1,125 Climbing FlightAware ADS-B
Tue 05:03:22 PM 47.9270 8.4430 181° South 453 521 30,500 1,067 Climbing FlightAware ADS-B
Tue 05:04:07 PM 47.8310 8.4400 181° South 468 539 31,200 714 Climbing FlightAware ADS-B
Tue 05:06:00 PM 47.6073 8.5494 162° South  Level Estimated
Tue 05:06:52 PM 47.4610 8.4700 162° South 498 573 33,000  Level FlightAware ADS-B
Tue 05:07:00 PM 47.4885 8.6072 162° South  Level Estimated
Tue 05:07:47 PM 47.3340 8.4890 174° South 503 579 33,700  Level FlightAware ADS-B
Tue 05:08:32 PM 47.2270 8.5040 175° South 499 574 34,200 847 Climbing FlightAware ADS-B
Tue 05:09:12 PM 47.1350 8.5180 174° South 497 572 34,900 565 Climbing FlightAware ADS-B
Tue 05:09:57 PM 47.0330 8.5320 175° South 499 574 35,000 71 Climbing FlightAware ADS-B
Tue 05:10:37 PM 46.9420 8.5460 174° South 501 577 35,000  Level FlightAware ADS-B
Tue 05:11:22 PM 46.8400 8.5600 175° South 502 578 35,000  Level FlightAware ADS-B
Tue 05:12:02 PM 46.7450 8.5740 174° South 501 577 35,000  Level FlightAware ADS-B
Tue 05:12:42 PM 46.6520 8.5870 175° South 501 577 35,000  Level FlightAware ADS-B
Tue 05:13:27 PM 46.5510 8.6030 174° South 503 579 35,000  Level FlightAware ADS-B
Tue 05:14:07 PM 46.4610 8.6460 162° South 508 585 35,000  Level FlightAware ADS-B
Tue 05:14:52 PM 46.3590 8.6970 161° South 507 583 35,000  Level FlightAware ADS-B
Tue 05:15:32 PM 46.2720 8.7400 161° South 506 582 35,000  Level FlightAware ADS-B
Tue 05:16:12 PM 46.1820 8.7860 161° South 509 586 35,000  Level FlightAware ADS-B
Tue 05:16:57 PM 46.0840 8.8350 161° South 512 589 35,000  Level FlightAware ADS-B
Tue 05:17:37 PM 45.9990 8.8760 161° South 514 592 35,000  Level FlightAware ADS-B
Tue 05:18:22 PM 45.8950 8.9270 161° South 517 595 35,000  Level FlightAware ADS-B
Tue 05:18:57 PM 45.8200 8.9640 161° South 516 594 35,000  Level FlightAware ADS-B
Tue 05:19:42 PM 45.7160 9.0150 161° South 517 595 35,000  Level FlightAware ADS-B
Tue 05:20:27 PM 45.6150 9.0640 161° South 517 595 35,000  Level FlightAware ADS-B
Tue 05:21:07 PM 45.5220 9.1090 161° South 516 594 35,000  Level FlightAware ADS-B
Tue 05:21:52 PM 45.4210 9.1580 161° South 519 597 35,000  Level FlightAware ADS-B
Tue 05:22:32 PM 45.3320 9.2010 161° South 521 600 35,000  Level FlightAware ADS-B
Tue 05:23:12 PM 45.2400 9.2450 161° South 521 600 35,000  Level FlightAware ADS-B
Tue 05:23:57 PM 45.1370 9.2950 161° South 521 600 35,000  Level FlightAware ADS-B
Tue 05:24:37 PM 45.0440 9.3390 162° South 522 601 35,000  Level FlightAware ADS-B
Tue 05:25:22 PM 44.9430 9.3870 161° South 523 602 35,000  Level FlightAware ADS-B
Tue 05:26:02 PM 44.8490 9.4310 162° South 527 606 35,000  Level FlightAware ADS-B
Tue 05:26:42 PM 44.7570 9.4750 161° South 529 609 35,000  Level FlightAware ADS-B
Tue 05:27:27 PM 44.6550 9.5230 161° South 528 608 35,000  Level FlightAware ADS-B
Tue 05:28:07 PM 44.5620 9.5660 162° South 529 609 35,000  Level FlightAware ADS-B
Tue 05:28:47 PM 44.4670 9.6110 161° South 533 613 35,000  Level FlightAware ADS-B
Tue 05:29:32 PM 44.3620 9.6600 162° South 536 617 35,000  Level FlightAware ADS-B
Tue 05:30:12 PM 44.2680 9.7030 162° South 537 618 35,000  Level FlightAware ADS-B
Tue 05:32:00 PM 44.0532 9.7968 163° South  Level Estimated
Tue 05:33:00 PM 43.9339 9.8486 163° South  Level Estimated
Tue 05:34:00 PM 43.8145 9.9002 163° South  Level Estimated
Tue 05:35:00 PM 43.6951 9.9516 163° South  Level Estimated
Tue 05:36:00 PM 43.5757 10.0028 163° South  Level Estimated
Tue 05:37:00 PM 43.4563 10.0537 163° South  Level Estimated
Tue 05:38:00 PM 43.3368 10.1045 163° South  Level Estimated
Tue 05:39:00 PM 43.2173 10.1551 163° South  Level Estimated
Tue 05:40:00 PM 43.0978 10.2055 163° South  Level Estimated
Tue 05:41:00 PM 42.9783 10.2557 163° South  Level Estimated
Tue 05:41:27 PM 42.6590 10.1190 163° South 537 618 35,000  Level FlightAware ADS-B
Tue 05:42:02 PM 42.5620 10.1360 173° South 538 619 35,000  Level FlightAware ADS-B
Tue 05:42:47 PM 42.4660 10.1530 173° South 537 618 35,000  Level FlightAware ADS-B
Tue 05:43:27 PM 42.3570 10.1720 173° South 536 617 35,000  Level FlightAware ADS-B
Tue 05:44:12 PM 42.2380 10.1930 173° South 539 620 35,000  Level FlightAware ADS-B
Tue 05:44:57 PM 42.1130 10.2150 173° South 532 612 35,000  Level FlightAware ADS-B
Tue 05:45:37 PM 42.0140 10.2320 173° South 531 611 35,000  Level FlightAware ADS-B
Tue 05:46:22 PM 41.9010 10.2520 172° South 537 618 35,000  Level FlightAware ADS-B
Tue 05:48:00 PM 41.7058 10.3327 163° South  Level Estimated
Tue 05:49:00 PM 41.5863 10.3819 163° South  Level Estimated
Tue 05:50:00 PM 41.4668 10.4309 163° South  Level Estimated
Tue 05:50:02 PM 41.3920 10.3110 163° South 534 615 35,000  Level FlightAware ADS-B
Tue 05:51:57 PM 41.0840 10.3400 163° South 532 612 35,000  Level FlightAware ADS-B
Tue 05:52:00 PM 41.1570 10.4074 163° South  Level Estimated
Tue 05:53:57 PM 40.8050 10.3660 163° South 532 612 35,000  Level FlightAware ADS-B
Tue 05:54:00 PM 40.8391 10.4400 163° South  Level Estimated
Tue 05:54:42 PM 40.6920 10.3770 176° South 531 611 35,000  Level FlightAware ADS-B
Tue 05:55:37 PM 40.5510 10.3900 176° South 533 613 35,000  Level FlightAware ADS-B
Tue 05:56:22 PM 40.4500 10.3990 176° South 531 611 35,000  Level FlightAware ADS-B
Tue 05:57:47 PM 40.2260 10.4200 176° South 519 597 35,000  Level FlightAware ADS-B
Tue 05:58:32 PM 40.1150 10.4300 176° South 530 610 35,000  Level FlightAware ADS-B
Tue 05:59:12 PM 40.0180 10.4390 176° South 531 611 35,000  Level FlightAware ADS-B
Tue 05:59:52 PM 39.9190 10.4480 176° South 530 610 35,000  Level FlightAware ADS-B
Tue 06:00:37 PM 39.8090 10.4580 176° South 529 609 35,000  Level FlightAware ADS-B
Tue 06:01:17 PM 39.7100 10.4670 176° South 528 608 35,000  Level FlightAware ADS-B
Tue 06:02:02 PM 39.6020 10.4770 176° South 529 609 35,000  Level FlightAware ADS-B
Tue 06:02:42 PM 39.5050 10.4860 176° South 529 609 35,000  Level FlightAware ADS-B
Tue 06:03:22 PM 39.4060 10.4950 176° South 531 611 35,000  Level FlightAware ADS-B
Tue 06:03:52 PM 39.3340 10.5010 176° South 532 612 35,000  Level FlightAware ADS-B
Tue 06:04:32 PM 39.2340 10.5100 176° South 532 612 35,000  Level FlightAware ADS-B
Tue 06:05:17 PM 39.1240 10.5200 176° South 531 611 35,000  Level FlightAware ADS-B
Tue 06:05:57 PM 39.0250 10.5290 176° South 530 610 35,000  Level FlightAware ADS-B
Tue 06:06:42 PM 38.9140 10.5390 176° South 528 608 35,000  Level FlightAware ADS-B
Tue 06:07:22 PM 38.8170 10.5470 176° South 530 610 35,000  Level FlightAware ADS-B
Tue 06:08:02 PM 38.7170 10.5560 176° South 530 610 35,000  Level FlightAware ADS-B
Tue 06:08:47 PM 38.6060 10.5660 176° South 530 610 35,000  Level FlightAware ADS-B
Tue 06:09:27 PM 38.5060 10.5750 176° South 529 609 35,000  Level FlightAware ADS-B
Tue 06:10:07 PM 38.4110 10.5830 176° South 528 608 35,000  Level FlightAware ADS-B
Tue 06:10:52 PM 38.3000 10.5930 176° South 528 608 35,000  Level FlightAware ADS-B
Tue 06:11:32 PM 38.2030 10.6010 176° South 529 609 35,000  Level FlightAware ADS-B
Tue 06:12:17 PM 38.0910 10.6090 177° South 529 609 35,000  Level FlightAware ADS-B
Tue 06:12:57 PM 37.9920 10.6150 177° South 530 610 35,000  Level FlightAware ADS-B
Tue 06:13:42 PM 37.8800 10.6210 178° South 531 611 35,000  Level FlightAware ADS-B
Tue 06:14:22 PM 37.7830 10.6270 177° South 530 610 35,000  Level FlightAware ADS-B
Tue 06:15:07 PM 37.6750 10.6340 177° South 529 609 35,000  Level FlightAware ADS-B
Tue 06:15:47 PM 37.5760 10.6400 177° South 527 606 35,000  Level FlightAware ADS-B
Tue 06:16:27 PM 37.4780 10.6460 177° South 528 608 35,000  Level FlightAware ADS-B
Tue 06:17:12 PM 37.3690 10.6520 177° South 530 610 35,000  Level FlightAware ADS-B
Tue 06:17:52 PM 37.2800 10.6580 177° South 530 610 35,000  Level FlightAware ADS-B
Tue 06:18:37 PM 37.1560 10.6650 177° South 531 611 35,000  Level FlightAware ADS-B
Tue 06:19:17 PM 37.0590 10.6710 177° South 530 610 35,000  Level FlightAware ADS-B
Tue 06:19:57 PM 36.9610 10.6770 177° South 529 609 35,000  Level FlightAware ADS-B
Tue 06:20:42 PM 36.8520 10.6840 177° South 528 608 35,000  Level FlightAware ADS-B
Tue 06:21:22 PM 36.7540 10.6890 178° South 529 609 35,000  Level FlightAware ADS-B
Tue 06:22:07 PM 36.6460 10.6960 177° South 530 610 35,000  Level FlightAware ADS-B
Tue 06:22:42 PM 36.5570 10.7010 177° South 532 612 35,000  Level FlightAware ADS-B
Tue 06:23:27 PM 36.4490 10.7070 177° South 531 611 35,000  Level FlightAware ADS-B
Tue 06:24:12 PM 36.3340 10.7140 177° South 529 609 35,000  Level FlightAware ADS-B
Tue 06:24:52 PM 36.2390 10.7200 177° South 530 610 35,000  Level FlightAware ADS-B
Tue 06:25:37 PM 36.1300 10.7260 177° South 532 612 35,000  Level FlightAware ADS-B
Tue 06:26:17 PM 36.0300 10.7320 177° South 533 613 35,000  Level FlightAware ADS-B
Tue 06:26:57 PM 35.9320 10.7380 177° South 533 613 35,000  Level FlightAware ADS-B
Tue 06:27:42 PM 35.8180 10.7440 178° South 533 613 35,000  Level FlightAware ADS-B
Tue 06:28:22 PM 35.7230 10.7500 177° South 533 613 35,000  Level FlightAware ADS-B
Tue 06:29:07 PM 35.6110 10.7560 178° South 534 615 35,000  Level FlightAware ADS-B
Tue 06:29:47 PM 35.5090 10.7620 177° South 535 616 35,000  Level FlightAware ADS-B
Tue 06:30:27 PM 35.4120 10.7680 177° South 536 617 35,000  Level FlightAware ADS-B
Tue 06:31:12 PM 35.3010 10.7740 177° South 537 618 35,000  Level FlightAware ADS-B
Tue 06:31:52 PM 35.2020 10.7800 177° South 538 619 35,000  Level FlightAware ADS-B
Tue 06:32:32 PM 35.1020 10.7860 177° South 540 621 35,000  Level FlightAware ADS-B
Tue 06:33:12 PM 35.0020 10.7910 178° South 541 623 35,000  Level FlightAware ADS-B
Tue 06:33:57 PM 34.8880 10.7980 177° South 540 621 35,000  Level FlightAware ADS-B
Tue 06:34:42 PM 34.7760 10.8040 177° South 539 620 35,000  Level FlightAware ADS-B
Tue 06:35:22 PM 34.6770 10.8100 177° South 538 619 35,000  Level FlightAware ADS-B
Tue 06:36:07 PM 34.5680 10.8160 177° South 535 616 35,000  Level FlightAware ADS-B
Tue 06:36:47 PM 34.4640 10.8220 177° South 533 613 35,000  Level FlightAware ADS-B
Tue 06:37:27 PM 34.3750 10.8270 177° South 533 613 35,000  Level FlightAware ADS-B
Tue 06:38:12 PM 34.2570 10.8330 178° South 531 611 35,000  Level FlightAware ADS-B
Tue 06:38:47 PM 34.1700 10.8380 177° South 527 606 35,000  Level FlightAware ADS-B
Tue 06:39:37 PM 34.0480 10.8450 177° South 525 604 35,000  Level FlightAware ADS-B
Tue 06:40:17 PM 33.9560 10.8500 177° South 523 602 35,000  Level FlightAware ADS-B
Tue 06:40:57 PM 33.8570 10.8560 177° South 522 601 35,000  Level FlightAware ADS-B
Tue 06:41:42 PM 33.7450 10.8620 177° South 523 602 35,000  Level FlightAware ADS-B
Tue 06:42:37 PM 33.6230 10.8690 177° South 523 602 35,000  Level FlightAware ADS-B
Tue 06:43:17 PM 33.5410 10.8740 177° South 523 602 35,000  Level FlightAware ADS-B
Tue 06:43:57 PM 33.4580 10.8790 177° South 523 602 35,000  Level FlightAware ADS-B
Tue 06:44:37 PM 33.3760 10.8850 177° South 523 602 35,000  Level FlightAware ADS-B
Tue 06:45:27 PM 33.2050 10.8910 178° South 521 600 35,000  Level FlightAware ADS-B
Tue 06:46:02 PM 33.1290 10.8960 177° South 521 600 35,000  Level FlightAware ADS-B
Tue 06:46:42 PM 33.0470 10.9010 177° South 521 600 35,000  Level FlightAware ADS-B
Tue 06:47:32 PM 32.9060 10.9080 178° South 522 601 35,000  Level FlightAware ADS-B
Tue 06:48:22 PM 32.7860 10.9150 177° South 522 601 35,000  Level FlightAware ADS-B
Tue 06:49:02 PM 32.7040 10.9200 177° South 522 601 35,000  Level FlightAware ADS-B
Tue 06:49:42 PM 32.6220 10.9250 177° South 522 601 35,000  Level FlightAware ADS-B
Tue 06:50:32 PM 32.5200 10.9310 177° South 522 601 35,000  Level FlightAware ADS-B
Tue 06:51:12 PM 32.4380 10.9360 177° South 522 601 35,000  Level FlightAware ADS-B
Tue 06:51:52 PM 32.3560 10.9410 177° South 522 601 35,000  Level FlightAware ADS-B
Tue 06:52:32 PM 32.2740 10.9460 177° South 522 601 35,000  Level FlightAware ADS-B
Tue 06:53:22 PM 32.1710 10.9530 177° South 522 601 35,000  Level FlightAware ADS-B
Tue 06:54:02 PM 32.0890 10.9580 177° South 522 601 35,000  Level FlightAware ADS-B
Tue 06:54:42 PM 32.0070 10.9630 177° South 522 601 35,000  Level FlightAware ADS-B
Tue 06:55:22 PM 31.9250 10.9680 177° South 522 601 35,000  Level FlightAware ADS-B
Tue 06:56:02 PM 31.8430 10.9730 177° South 522 601 35,000  Level FlightAware ADS-B
Tue 06:56:52 PM 31.7410 10.9790 177° South 522 601 35,000  Level FlightAware ADS-B
Tue 06:57:32 PM 31.6590 10.9840 177° South 522 601 35,000 10 Level FlightAware ADS-B
Tue 07:00:00 PM 31.3577 11.0979 162° South  Level Estimated
Tue 07:01:00 PM 31.2356 11.1439 162° South  Level Estimated
Tue 07:02:00 PM 31.1134 11.1897 162° South  Level Estimated
Tue 07:03:00 PM 30.9912 11.2354 162° South  Level Estimated
Tue 07:04:00 PM 30.8690 11.2811 162° South  Level Estimated
Tue 07:05:00 PM 30.7468 11.3266 162° South  Level Estimated
Tue 07:06:00 PM 30.6246 11.3719 162° South  Level Estimated
Tue 07:07:00 PM 30.5023 11.4172 162° South  Level Estimated
Tue 07:08:00 PM 30.3801 11.4624 162° South  Level Estimated
Tue 07:09:00 PM 30.2578 11.5074 162° South  Level Estimated
Tue 07:10:00 PM 30.1355 11.5523 162° South  Level Estimated
Tue 07:11:00 PM 30.0132 11.5971 162° South  Level Estimated
Tue 07:12:00 PM 29.8908 11.6419 162° South  Level Estimated
Tue 07:13:00 PM 29.7685 11.6865 162° South  Level Estimated
Tue 07:14:00 PM 29.6461 11.7310 162° South  Level Estimated
Tue 07:15:00 PM 29.5238 11.7753 162° South  Level Estimated
Tue 07:16:00 PM 29.4014 11.8196 163° South  Level Estimated
Tue 07:17:00 PM 29.2790 11.8638 163° South  Level Estimated
Tue 07:18:00 PM 29.1565 11.9078 163° South  Level Estimated
Tue 07:19:00 PM 29.0341 11.9518 163° South  Level Estimated
Tue 07:20:00 PM 28.9117 11.9956 163° South  Level Estimated
Tue 07:21:00 PM 28.7892 12.0394 163° South  Level Estimated
Tue 07:22:00 PM 28.6667 12.0830 163° South  Level Estimated
Tue 07:23:00 PM 28.5443 12.1266 163° South  Level Estimated
Tue 07:24:00 PM 28.4217 12.1700 163° South  Level Estimated
Tue 07:25:00 PM 28.2992 12.2134 163° South  Level Estimated
Tue 07:26:00 PM 28.1767 12.2566 163° South  Level Estimated
Tue 07:27:00 PM 28.0542 12.2997 163° South  Level Estimated
Tue 07:28:00 PM 27.9316 12.3428 163° South  Level Estimated
Tue 07:29:00 PM 27.8090 12.3857 163° South  Level Estimated
Tue 07:30:00 PM 27.6864 12.4286 163° South  Level Estimated
Tue 07:31:00 PM 27.5639 12.4713 163° South  Level Estimated
Tue 07:32:00 PM 27.4412 12.5140 163° South  Level Estimated
Tue 07:33:00 PM 27.3186 12.5566 163° South  Level Estimated
Tue 07:34:00 PM 27.1960 12.5990 163° South  Level Estimated
Tue 07:35:00 PM 27.0733 12.6414 163° South  Level Estimated
Tue 07:36:00 PM 26.9507 12.6837 163° South  Level Estimated
Tue 07:37:00 PM 26.8280 12.7259 163° South  Level Estimated
Tue 07:38:00 PM 26.7053 12.7680 163° South  Level Estimated
Tue 07:39:00 PM 26.5826 12.8100 163° South  Level Estimated
Tue 07:40:00 PM 26.4599 12.8519 163° South  Level Estimated
Tue 07:41:00 PM 26.3372 12.8938 163° South  Level Estimated
Tue 07:42:00 PM 26.2145 12.9355 163° South  Level Estimated
Tue 07:43:00 PM 26.0917 12.9772 163° South  Level Estimated
Tue 07:44:00 PM 25.9690 13.0187 163° South  Level Estimated
Tue 07:45:00 PM 25.8462 13.0602 163° South  Level Estimated
Tue 07:46:00 PM 25.7234 13.1016 163° South  Level Estimated
Tue 07:47:00 PM 25.6006 13.1429 163° South  Level Estimated
Tue 07:48:00 PM 25.4778 13.1842 163° South  Level Estimated
Tue 07:49:00 PM 25.3550 13.2253 163° South  Level Estimated
Tue 07:50:00 PM 25.2321 13.2664 163° South  Level Estimated
Tue 07:51:00 PM 25.1093 13.3073 163° South  Level Estimated
Tue 07:52:00 PM 24.9865 13.3482 163° South  Level Estimated
Tue 07:53:00 PM 24.8636 13.3890 163° South  Level Estimated
Tue 07:54:00 PM 24.7407 13.4298 163° South  Level Estimated
Tue 07:55:00 PM 24.6178 13.4704 163° South  Level Estimated
Tue 07:56:00 PM 24.4950 13.5110 163° South  Level Estimated
Tue 07:57:00 PM 24.3720 13.5515 163° South  Level Estimated
Tue 07:58:00 PM 24.2491 13.5919 163° South  Level Estimated
Tue 07:59:00 PM 24.1262 13.6322 163° South  Level Estimated
Tue 08:00:00 PM 24.0033 13.6725 163° South  Level Estimated
Tue 08:01:00 PM 23.8803 13.7127 163° South  Level Estimated
Tue 08:02:00 PM 23.7574 13.7528 163° South  Level Estimated
Tue 08:03:00 PM 23.6344 13.7928 163° South  Level Estimated
Tue 08:04:00 PM 23.5114 13.8327 163° South  Level Estimated
Tue 08:05:00 PM 23.3884 13.8726 163° South  Level Estimated
Tue 08:06:00 PM 23.2654 13.9124 163° South  Level Estimated
Tue 08:07:00 PM 23.1424 13.9521 163° South  Level Estimated
Tue 08:08:00 PM 23.0194 13.9918 163° South  Level Estimated
Tue 08:09:00 PM 22.8964 14.0314 163° South  Level Estimated
Tue 08:10:00 PM 22.7733 14.0709 164° South  Level Estimated
Tue 08:11:00 PM 22.6503 14.1103 164° South  Level Estimated
Tue 08:12:00 PM 22.5272 14.1497 164° South  Level Estimated
Tue 08:13:00 PM 22.4041 14.1890 164° South  Level Estimated
Tue 08:14:00 PM 22.2810 14.2282 164° South  Level Estimated
Tue 08:15:00 PM 22.1580 14.2674 164° South  Level Estimated
Tue 08:16:00 PM 22.0349 14.3065 164° South  Level Estimated
Tue 08:17:00 PM 21.9118 14.3455 164° South  Level Estimated
Tue 08:18:00 PM 21.7886 14.3845 164° South  Level Estimated
Tue 08:19:00 PM 21.6655 14.4234 164° South  Level Estimated
Tue 08:20:00 PM 21.5424 14.4622 164° South  Level Estimated
Tue 08:21:00 PM 21.4193 14.5010 164° South  Level Estimated
Tue 08:22:00 PM 21.2961 14.5396 164° South  Level Estimated
Tue 08:23:00 PM 21.1729 14.5783 164° South  Level Estimated
Tue 08:24:00 PM 21.0498 14.6168 164° South  Level Estimated
Tue 08:25:00 PM 20.9266 14.6553 164° South  Level Estimated
Tue 08:26:00 PM 20.8034 14.6938 164° South  Level Estimated
Tue 08:27:00 PM 20.6802 14.7322 164° South  Level Estimated
Tue 08:28:00 PM 20.5570 14.7705 164° South  Level Estimated
Tue 08:29:00 PM 20.4338 14.8087 164° South  Level Estimated
Tue 08:30:00 PM 20.3106 14.8469 164° South  Level Estimated
Tue 08:31:00 PM 20.1873 14.8850 164° South  Level Estimated
Tue 08:32:00 PM 20.0641 14.9231 164° South  Level Estimated
Tue 08:33:00 PM 19.9409 14.9611 164° South  Level Estimated
Tue 08:34:00 PM 19.8176 14.9991 164° South  Level Estimated
Tue 08:35:00 PM 19.6944 15.0370 164° South  Level Estimated
Tue 08:36:00 PM 19.5711 15.0748 164° South  Level Estimated
Tue 08:37:00 PM 19.4478 15.1126 164° South  Level Estimated
Tue 08:38:00 PM 19.3245 15.1503 164° South  Level Estimated
Tue 08:39:00 PM 19.2012 15.1880 164° South  Level Estimated
Tue 08:40:00 PM 19.0779 15.2256 164° South  Level Estimated
Tue 08:41:00 PM 18.9546 15.2631 164° South  Level Estimated
Tue 08:42:00 PM 18.8313 15.3006 164° South  Level Estimated
Tue 08:43:00 PM 18.7080 15.3380 164° South  Level Estimated
Tue 08:44:00 PM 18.5847 15.3754 164° South  Level Estimated
Tue 08:45:00 PM 18.4613 15.4128 164° South  Level Estimated
Tue 08:46:00 PM 18.3380 15.4500 164° South  Level Estimated
Tue 08:47:00 PM 18.2146 15.4873 164° South  Level Estimated
Tue 08:48:00 PM 18.0913 15.5244 164° South  Level Estimated
Tue 08:49:00 PM 17.9679 15.5616 164° South  Level Estimated
Tue 08:50:00 PM 17.8445 15.5986 164° South  Level Estimated
Tue 08:51:00 PM 17.7212 15.6356 164° South  Level Estimated
Tue 08:52:00 PM 17.5978 15.6726 164° South  Level Estimated
Tue 08:53:00 PM 17.4744 15.7095 164° South  Level Estimated
Tue 08:54:00 PM 17.3510 15.7464 164° South  Level Estimated
Tue 08:55:00 PM 17.2276 15.7832 164° South  Level Estimated
Tue 08:56:00 PM 17.1042 15.8200 164° South  Level Estimated
Tue 08:57:00 PM 16.9807 15.8567 164° South  Level Estimated
Tue 08:58:00 PM 16.8573 15.8933 164° South  Level Estimated
Tue 08:59:00 PM 16.7339 15.9300 164° South  Level Estimated
Tue 09:00:00 PM 16.6105 15.9665 164° South  Level Estimated
Tue 09:01:00 PM 16.4870 16.0031 164° South  Level Estimated
Tue 09:02:00 PM 16.3636 16.0395 164° South  Level Estimated
Tue 09:03:00 PM 16.2401 16.0760 164° South  Level Estimated
Tue 09:04:00 PM 16.1166 16.1124 164° South  Level Estimated
Tue 09:05:00 PM 15.9932 16.1487 164° South  Level Estimated
Tue 09:06:00 PM 15.8697 16.1850 164° South  Level Estimated
Tue 09:07:00 PM 15.7462 16.2213 164° South  Level Estimated
Tue 09:08:00 PM 15.6227 16.2575 164° South  Level Estimated
Tue 09:09:00 PM 15.4992 16.2936 164° South  Level Estimated
Tue 09:10:00 PM 15.3757 16.3298 164° South  Level Estimated
Tue 09:11:00 PM 15.2522 16.3658 164° South  Level Estimated
Tue 09:12:00 PM 15.1287 16.4019 164° South  Level Estimated
Tue 09:13:00 PM 15.0052 16.4379 164° South  Level Estimated
Tue 09:14:00 PM 14.8817 16.4738 164° South  Level Estimated
Tue 09:15:00 PM 14.7581 16.5097 164° South  Level Estimated
Tue 09:16:00 PM 14.6346 16.5456 164° South  Level Estimated
Tue 09:17:00 PM 14.5111 16.5814 164° South  Level Estimated
Tue 09:18:00 PM 14.3875 16.6172 164° South  Level Estimated
Tue 09:19:00 PM 14.2640 16.6530 164° South  Level Estimated
Tue 09:20:00 PM 14.1404 16.6887 164° South  Level Estimated
Tue 09:21:00 PM 14.0168 16.7243 164° South  Level Estimated
Tue 09:22:00 PM 13.8933 16.7600 164° South  Level Estimated
Tue 09:23:00 PM 13.7697 16.7956 164° South  Level Estimated
Tue 09:24:00 PM 13.6461 16.8311 164° South  Level Estimated
Tue 09:25:00 PM 13.5225 16.8667 164° South  Level Estimated
Tue 09:26:00 PM 13.3989 16.9021 164° South  Level Estimated
Tue 09:27:00 PM 13.2754 16.9376 164° South  Level Estimated
Tue 09:28:00 PM 13.1518 16.9730 164° South  Level Estimated
Tue 09:29:00 PM 13.0282 17.0084 164° South  Level Estimated
Tue 09:30:00 PM 12.9045 17.0437 164° South  Level Estimated
Tue 09:31:00 PM 12.7809 17.0790 164° South  Level Estimated
Tue 09:32:00 PM 12.6573 17.1143 164° South  Level Estimated
Tue 09:33:00 PM 12.5337 17.1495 164° South  Level Estimated
Tue 09:34:00 PM 12.4101 17.1847 164° South  Level Estimated
Tue 09:35:00 PM 12.2865 17.2199 164° South  Level Estimated
Tue 09:36:00 PM 12.1628 17.2551 164° South  Level Estimated
Tue 09:37:00 PM 12.0392 17.2902 164° South  Level Estimated
Tue 09:38:00 PM 11.9155 17.3252 164° South  Level Estimated
Tue 09:39:00 PM 11.7919 17.3603 164° South  Level Estimated
Tue 09:40:00 PM 11.6682 17.3953 165° South  Level Estimated
Tue 09:41:00 PM 11.5446 17.4303 165° South  Level Estimated
Tue 09:42:00 PM 11.4209 17.4652 165° South  Level Estimated
Tue 09:43:00 PM 11.2973 17.5001 165° South  Level Estimated
Tue 09:44:00 PM 11.1736 17.5350 165° South  Level Estimated
Tue 09:45:00 PM 11.0499 17.5699 165° South  Level Estimated
Tue 09:46:00 PM 10.9262 17.6047 165° South  Level Estimated
Tue 09:47:00 PM 10.8026 17.6395 165° South  Level Estimated
Tue 09:48:00 PM 10.6789 17.6743 165° South  Level Estimated
Tue 09:49:00 PM 10.5552 17.7090 165° South  Level Estimated
Tue 09:50:00 PM 10.4315 17.7437 165° South  Level Estimated
Tue 09:51:00 PM 10.3078 17.7784 165° South  Level Estimated
Tue 09:52:00 PM 10.1841 17.8131 165° South  Level Estimated
Tue 09:53:00 PM 10.0604 17.8477 165° South  Level Estimated
Tue 09:54:00 PM 9.9367 17.8823 165° South  Level Estimated
Tue 09:55:00 PM 9.8130 17.9169 165° South  Level Estimated
Tue 09:56:00 PM 9.6893 17.9515 165° South  Level Estimated
Tue 09:57:00 PM 9.5655 17.9860 165° South  Level Estimated
Tue 09:58:00 PM 9.4418 18.0205 165° South  Level Estimated
Tue 09:59:00 PM 9.3181 18.0550 165° South  Level Estimated
Tue 10:00:00 PM 9.1944 18.0894 165° South  Level Estimated
Tue 10:01:00 PM 9.0707 18.1238 165° South  Level Estimated
Tue 10:02:00 PM 8.9469 18.1583 165° South  Level Estimated
Tue 10:03:00 PM 8.8232 18.1926 165° South  Level Estimated
Tue 10:04:00 PM 8.6994 18.2270 165° South  Level Estimated
Tue 10:05:00 PM 8.5757 18.2613 165° South  Level Estimated
Tue 10:06:00 PM 8.4520 18.2957 165° South  Level Estimated
Tue 10:07:00 PM 8.3282 18.3299 165° South  Level Estimated
Tue 10:08:00 PM 8.2044 18.3642 165° South  Level Estimated
Tue 10:09:00 PM 8.0807 18.3985 165° South  Level Estimated
Tue 10:10:00 PM 7.9569 18.4327 165° South  Level Estimated
Tue 10:11:00 PM 7.8332 18.4669 165° South  Level Estimated
Tue 10:12:00 PM 7.7094 18.5011 165° South  Level Estimated
Tue 10:13:00 PM 7.5856 18.5353 165° South  Level Estimated
Tue 10:14:00 PM 7.4619 18.5694 165° South  Level Estimated
Tue 10:15:00 PM 7.3381 18.6035 165° South  Level Estimated
Tue 10:16:00 PM 7.2143 18.6376 165° South  Level Estimated
Tue 10:17:00 PM 7.0906 18.6717 165° South  Level Estimated
Tue 10:18:00 PM 6.9668 18.7058 165° South  Level Estimated
Tue 10:19:00 PM 6.8430 18.7399 165° South  Level Estimated
Tue 10:20:00 PM 6.7192 18.7739 165° South  Level Estimated
Tue 10:21:00 PM 6.5954 18.8079 165° South  Level Estimated
Tue 10:22:00 PM 6.4716 18.8419 165° South  Level Estimated
Tue 10:23:00 PM 6.3478 18.8759 165° South  Level Estimated
Tue 10:24:00 PM 6.2241 18.9099 165° South  Level Estimated
Tue 10:25:00 PM 6.1003 18.9438 165° South  Level Estimated
Tue 10:26:00 PM 5.9765 18.9778 165° South  Level Estimated
Tue 10:27:00 PM 5.8527 19.0117 165° South  Level Estimated
Tue 10:28:00 PM 5.7289 19.0456 165° South  Level Estimated
Tue 10:29:00 PM 5.6051 19.0795 165° South  Level Estimated
Tue 10:30:00 PM 5.4813 19.1134 165° South  Level Estimated
Tue 10:31:00 PM 5.3575 19.1472 165° South  Level Estimated
Tue 10:32:00 PM 5.2337 19.1811 165° South  Level Estimated
Tue 10:33:00 PM 5.1098 19.2149 165° South  Level Estimated
Tue 10:34:00 PM 4.9860 19.2487 165° South  Level Estimated
Tue 10:35:00 PM 4.8622 19.2826 165° South  Level Estimated
Tue 10:36:00 PM 4.7384 19.3164 165° South  Level Estimated
Tue 10:37:00 PM 4.6146 19.3501 165° South  Level Estimated
Tue 10:38:00 PM 4.4908 19.3839 165° South  Level Estimated
Tue 10:39:00 PM 4.3669 19.4177 165° South  Level Estimated
Tue 10:40:00 PM 4.2431 19.4514 165° South  Level Estimated
Tue 10:41:00 PM 4.1193 19.4852 165° South  Level Estimated
Tue 10:42:00 PM 3.9955 19.5189 165° South  Level Estimated
Tue 10:43:00 PM 3.8716 19.5526 165° South  Level Estimated
Tue 10:44:00 PM 3.7478 19.5863 165° South  Level Estimated
Tue 10:45:00 PM 3.6240 19.6200 165° South  Level Estimated
Tue 10:46:00 PM 3.5002 19.6537 165° South  Level Estimated
Tue 10:47:00 PM 3.3763 19.6874 165° South  Level Estimated
Tue 10:48:00 PM 3.2525 19.7211 165° South  Level Estimated
Tue 10:49:00 PM 3.1287 19.7547 165° South  Level Estimated
Tue 10:50:00 PM 3.0048 19.7884 165° South  Level Estimated
Tue 10:51:00 PM 2.8810 19.8221 165° South  Level Estimated
Tue 10:52:00 PM 2.7572 19.8557 165° South  Level Estimated
Tue 10:53:00 PM 2.6333 19.8893 165° South  Level Estimated
Tue 10:54:00 PM 2.5095 19.9230 165° South  Level Estimated
Tue 10:55:00 PM 2.3856 19.9566 165° South  Level Estimated
Tue 10:56:00 PM 2.2618 19.9902 165° South  Level Estimated
Tue 10:57:00 PM 2.1380 20.0238 165° South  Level Estimated
Tue 10:58:00 PM 2.0141 20.0574 165° South  Level Estimated
Tue 10:59:00 PM 1.8903 20.0910 165° South  Level Estimated
Tue 11:00:00 PM 1.7664 20.1246 165° South  Level Estimated
Tue 11:01:00 PM 1.6426 20.1582 165° South  Level Estimated
Tue 11:02:00 PM 1.5188 20.1918 165° South  Level Estimated
Tue 11:03:00 PM 1.3949 20.2254 165° South  Level Estimated
Tue 11:04:00 PM 1.2711 20.2590 165° South  Level Estimated
Tue 11:05:00 PM 1.1472 20.2925 165° South  Level Estimated
Tue 11:06:00 PM 1.0154 20.3283 165° South  Level Estimated
Tue 11:07:00 PM 0.8835 20.3640 165° South  Level Estimated
Tue 11:08:00 PM 0.7516 20.3998 165° South  Level Estimated
Tue 11:09:00 PM 0.6198 20.4355 165° South  Level Estimated
Tue 11:10:00 PM 0.4879 20.4713 165° South  Level Estimated
Tue 11:11:00 PM 0.3561 20.5070 165° South  Level Estimated
Tue 11:12:00 PM 0.2242 20.5427 165° South  Level Estimated
Tue 11:13:00 PM 0.0923 20.5785 165° South  Level Estimated
Tue 11:14:00 PM -0.0395 20.6142 165° South  Level Estimated
Tue 11:15:00 PM -0.1714 20.6499 165° South  Level Estimated
Tue 11:16:00 PM -0.3032 20.6856 165° South  Level Estimated
Tue 11:17:00 PM -0.4351 20.7214 165° South  Level Estimated
Tue 11:18:00 PM -0.5670 20.7571 165° South  Level Estimated
Tue 11:19:00 PM -0.6988 20.7929 165° South  Level Estimated
Tue 11:20:00 PM -0.8307 20.8286 165° South  Level Estimated
Tue 11:21:00 PM -0.9625 20.8643 165° South  Level Estimated
Tue 11:22:00 PM -1.0944 20.9001 165° South  Level Estimated
Tue 11:23:00 PM -1.2263 20.9359 165° South  Level Estimated
Tue 11:24:00 PM -1.3581 20.9716 165° South  Level Estimated
Tue 11:25:00 PM -1.4900 21.0074 165° South  Level Estimated
Tue 11:26:00 PM -1.6218 21.0431 165° South  Level Estimated
Tue 11:27:00 PM -1.7537 21.0789 165° South  Level Estimated
Tue 11:28:00 PM -1.8855 21.1147 165° South  Level Estimated
Tue 11:29:00 PM -2.0174 21.1504 165° South  Level Estimated
Tue 11:30:00 PM -2.1492 21.1862 165° South  Level Estimated
Tue 11:31:00 PM -2.2811 21.2220 165° South  Level Estimated
Tue 11:32:00 PM -2.4129 21.2578 165° South  Level Estimated
Tue 11:33:00 PM -2.5448 21.2936 165° South  Level Estimated
Tue 11:34:00 PM -2.6766 21.3294 165° South  Level Estimated
Tue 11:35:00 PM -2.8085 21.3652 165° South  Level Estimated
Tue 11:36:00 PM -2.9403 21.4010 165° South  Level Estimated
Tue 11:37:00 PM -3.0722 21.4369 165° South  Level Estimated
Tue 11:38:00 PM -3.2040 21.4727 165° South  Level Estimated
Tue 11:39:00 PM -3.3359 21.5086 165° South  Level Estimated
Tue 11:40:00 PM -3.4677 21.5444 165° South  Level Estimated
Tue 11:41:00 PM -3.5996 21.5803 165° South  Level Estimated
Tue 11:42:00 PM -3.7314 21.6162 165° South  Level Estimated
Tue 11:43:00 PM -3.8632 21.6521 165° South  Level Estimated
Tue 11:44:00 PM -3.9951 21.6880 165° South  Level Estimated
Tue 11:45:00 PM -4.1269 21.7239 165° South  Level Estimated
Tue 11:46:00 PM -4.2587 21.7598 165° South  Level Estimated
Tue 11:47:00 PM -4.3906 21.7957 165° South  Level Estimated
Tue 11:48:00 PM -4.5224 21.8317 165° South  Level Estimated
Tue 11:49:00 PM -4.6542 21.8676 165° South  Level Estimated
Tue 11:50:00 PM -4.7860 21.9036 165° South  Level Estimated
Tue 11:51:00 PM -4.9179 21.9396 165° South  Level Estimated
Tue 11:52:00 PM -5.0497 21.9756 165° South  Level Estimated
Tue 11:53:00 PM -5.1815 22.0117 165° South  Level Estimated
Tue 11:54:00 PM -5.3133 22.0477 165° South  Level Estimated
Tue 11:55:00 PM -5.4451 22.0837 165° South  Level Estimated
Tue 11:56:00 PM -5.5770 22.1198 165° South  Level Estimated
Tue 11:57:00 PM -5.7088 22.1559 165° South  Level Estimated
Tue 11:58:00 PM -5.8406 22.1920 165° South  Level Estimated
Tue 11:59:00 PM -5.9724 22.2281 165° South  Level Estimated
Wed 12:00:00 AM -6.1042 22.2642 165° South  Level Estimated
Wed 12:01:00 AM -6.2360 22.3004 165° South  Level Estimated
Wed 12:02:00 AM -6.3678 22.3366 165° South  Level Estimated
Wed 12:03:00 AM -6.4996 22.3727 165° South  Level Estimated
Wed 12:04:00 AM -6.6314 22.4090 165° South  Level Estimated
Wed 12:05:00 AM -6.7632 22.4452 165° South  Level Estimated
Wed 12:06:00 AM -6.8950 22.4814 165° South  Level Estimated
Wed 12:07:00 AM -7.0268 22.5177 165° South  Level Estimated
Wed 12:08:00 AM -7.1585 22.5540 165° South  Level Estimated
Wed 12:09:00 AM -7.2903 22.5903 165° South  Level Estimated
Wed 12:10:00 AM -7.4221 22.6266 165° South  Level Estimated
Wed 12:11:00 AM -7.5539 22.6630 165° South  Level Estimated
Wed 12:12:00 AM -7.6856 22.6994 165° South  Level Estimated
Wed 12:13:00 AM -7.8174 22.7358 165° South  Level Estimated
Wed 12:14:00 AM -7.9492 22.7722 165° South  Level Estimated
Wed 12:15:00 AM -8.0809 22.8086 165° South  Level Estimated
Wed 12:16:00 AM -8.2127 22.8451 165° South  Level Estimated
Wed 12:17:00 AM -8.3445 22.8816 165° South  Level Estimated
Wed 12:18:00 AM -8.4762 22.9181 165° South  Level Estimated
Wed 12:19:00 AM -8.6080 22.9546 165° South  Level Estimated
Wed 12:20:00 AM -8.7397 22.9912 165° South  Level Estimated
Wed 12:21:00 AM -8.8715 23.0278 165° South  Level Estimated
Wed 12:22:00 AM -9.0032 23.0644 165° South  Level Estimated
Wed 12:23:00 AM -9.1349 23.1010 165° South  Level Estimated
Wed 12:24:00 AM -9.2667 23.1377 165° South  Level Estimated
Wed 12:25:00 AM -9.3984 23.1744 165° South  Level Estimated
Wed 12:26:00 AM -9.5301 23.2111 165° South  Level Estimated
Wed 12:27:00 AM -9.6618 23.2479 165° South  Level Estimated
Wed 12:28:00 AM -9.7935 23.2847 165° South  Level Estimated
Wed 12:29:00 AM -9.9253 23.3215 165° South  Level Estimated
Wed 12:30:00 AM -10.0570 23.3583 165° South  Level Estimated
Wed 12:31:00 AM -10.1887 23.3952 165° South  Level Estimated
Wed 12:32:00 AM -10.3204 23.4321 165° South  Level Estimated
Wed 12:33:00 AM -10.4521 23.4690 165° South  Level Estimated
Wed 12:34:00 AM -10.5838 23.5060 165° South  Level Estimated
Wed 12:35:00 AM -10.7155 23.5430 165° South  Level Estimated
Wed 12:36:00 AM -10.8471 23.5800 165° South  Level Estimated
Wed 12:37:00 AM -10.9788 23.6171 165° South  Level Estimated
Wed 12:38:00 AM -11.1105 23.6542 165° South  Level Estimated
Wed 12:39:00 AM -11.2422 23.6913 165° South  Level Estimated
Wed 12:40:00 AM -11.3738 23.7285 165° South  Level Estimated
Wed 12:41:00 AM -11.5055 23.7657 165° South  Level Estimated
Wed 12:42:00 AM -11.6371 23.8029 165° South  Level Estimated
Wed 12:43:00 AM -11.7688 23.8402 165° South  Level Estimated
Wed 12:44:00 AM -11.9004 23.8775 165° South  Level Estimated
Wed 12:45:00 AM -12.0321 23.9148 164° South  Level Estimated
Wed 12:46:00 AM -12.1637 23.9522 164° South  Level Estimated
Wed 12:47:00 AM -12.2954 23.9896 164° South  Level Estimated
Wed 12:48:00 AM -12.4270 24.0271 164° South  Level Estimated
Wed 12:49:00 AM -12.5586 24.0646 164° South  Level Estimated
Wed 12:50:00 AM -12.6902 24.1021 164° South  Level Estimated
Wed 12:51:00 AM -12.8218 24.1397 164° South  Level Estimated
Wed 12:52:00 AM -12.9534 24.1773 164° South  Level Estimated
Wed 12:53:00 AM -13.0850 24.2149 164° South  Level Estimated
Wed 12:54:00 AM -13.2166 24.2526 164° South  Level Estimated
Wed 12:55:00 AM -13.3482 24.2903 164° South  Level Estimated
Wed 12:56:00 AM -13.4798 24.3281 164° South  Level Estimated
Wed 12:57:00 AM -13.6114 24.3659 164° South  Level Estimated
Wed 12:58:00 AM -13.7430 24.4037 164° South  Level Estimated
Wed 12:59:00 AM -13.8745 24.4416 164° South  Level Estimated
Wed 01:00:00 AM -14.0061 24.4796 164° South  Level Estimated
Wed 01:01:00 AM -14.1376 24.5175 164° South  Level Estimated
Wed 01:02:00 AM -14.2692 24.5556 164° South  Level Estimated
Wed 01:03:00 AM -14.4007 24.5936 164° South  Level Estimated
Wed 01:04:00 AM -14.5323 24.6318 164° South  Level Estimated
Wed 01:05:00 AM -14.6638 24.6699 164° South  Level Estimated
Wed 01:06:00 AM -14.7953 24.7081 164° South  Level Estimated
Wed 01:07:00 AM -14.9268 24.7464 164° South  Level Estimated
Wed 01:08:00 AM -15.0583 24.7847 164° South  Level Estimated
Wed 01:09:00 AM -15.1898 24.8230 164° South  Level Estimated
Wed 01:10:00 AM -15.3213 24.8614 164° South  Level Estimated
Wed 01:11:00 AM -15.4528 24.8998 164° South  Level Estimated
Wed 01:12:00 AM -15.5843 24.9383 164° South  Level Estimated
Wed 01:13:00 AM -15.7158 24.9769 164° South  Level Estimated
Wed 01:14:00 AM -15.8473 25.0154 164° South  Level Estimated
Wed 01:15:00 AM -15.9787 25.0541 164° South  Level Estimated
Wed 01:16:00 AM -16.1102 25.0928 164° South  Level Estimated
Wed 01:17:00 AM -16.2416 25.1315 164° South  Level Estimated
Wed 01:18:00 AM -16.3731 25.1703 164° South  Level Estimated
Wed 01:19:00 AM -16.5045 25.2092 164° South  Level Estimated
Wed 01:20:00 AM -16.6359 25.2481 164° South  Level Estimated
Wed 01:21:00 AM -16.7674 25.2870 164° South  Level Estimated
Wed 01:22:00 AM -16.8988 25.3260 164° South  Level Estimated
Wed 01:23:00 AM -17.0302 25.3651 164° South  Level Estimated
Wed 01:24:00 AM -17.1616 25.4042 164° South  Level Estimated
Wed 01:25:00 AM -17.2930 25.4433 164° South  Level Estimated
Wed 01:26:00 AM -17.4244 25.4826 164° South  Level Estimated
Wed 01:27:00 AM -17.5557 25.5219 164° South  Level Estimated
Wed 01:28:00 AM -17.6871 25.5612 164° South  Level Estimated
Wed 01:29:00 AM -17.8185 25.6006 164° South  Level Estimated
Wed 01:30:00 AM -17.9498 25.6400 164° South  Level Estimated
Wed 01:31:00 AM -18.0812 25.6796 164° South  Level Estimated
Wed 01:32:00 AM -18.2125 25.7191 164° South  Level Estimated
Wed 01:33:00 AM -18.3438 25.7588 164° South  Level Estimated
Wed 01:34:00 AM -18.4751 25.7984 164° South  Level Estimated
Wed 01:35:00 AM -18.6065 25.8382 164° South  Level Estimated
Wed 01:36:00 AM -18.7378 25.8780 164° South  Level Estimated
Wed 01:37:00 AM -18.8691 25.9179 164° South  Level Estimated
Wed 01:38:00 AM -19.0004 25.9578 164° South  Level Estimated
Wed 01:39:00 AM -19.1316 25.9978 164° South  Level Estimated
Wed 01:40:00 AM -19.2629 26.0379 164° South  Level Estimated
Wed 01:41:00 AM -19.3942 26.0780 164° South  Level Estimated
Wed 01:42:00 AM -19.5254 26.1182 164° South  Level Estimated
Wed 01:43:00 AM -19.6567 26.1585 164° South  Level Estimated
Wed 01:44:00 AM -19.7879 26.1988 164° South  Level Estimated
Wed 01:45:00 AM -19.9191 26.2392 164° South  Level Estimated
Wed 01:46:00 AM -20.0503 26.2797 164° South  Level Estimated
Wed 01:47:00 AM -20.1815 26.3202 164° South  Level Estimated
Wed 01:48:00 AM -20.3127 26.3608 164° South  Level Estimated
Wed 01:49:00 AM -20.4439 26.4014 164° South  Level Estimated
Wed 01:50:00 AM -20.5751 26.4422 164° South  Level Estimated
Wed 01:50:27 AM -23.0410 26.1360 164° South 515 593 39,000  Level FlightAware ADS-B
Wed 01:51:00 AM -20.7063 26.4830 164° South  Level Estimated
Wed 01:51:07 AM -23.1260 26.1760 157° South 515 593 39,000  Level FlightAware ADS-B
Wed 01:51:47 AM -23.2000 26.2120 156° South 515 593 39,000  Level FlightAware ADS-B
Wed 01:52:32 AM -23.3210 26.2650 158° South 518 596 39,000  Level FlightAware ADS-B
Wed 01:53:12 AM -23.4080 26.3060 157° South 516 594 39,000  Level FlightAware ADS-B
Wed 01:53:57 AM -23.5050 26.3510 157° South 518 596 39,000  Level FlightAware ADS-B
Wed 01:54:37 AM -23.5940 26.3920 157° South 519 597 39,000  Level FlightAware ADS-B
Wed 01:55:22 AM -23.6940 26.4390 157° South 520 598 39,000  Level FlightAware ADS-B
Wed 01:56:02 AM -23.7860 26.4820 157° South 521 600 39,000  Level FlightAware ADS-B
Wed 01:56:42 AM -23.8750 26.5240 157° South 521 600 39,000  Level FlightAware ADS-B
Wed 01:57:27 AM -23.9730 26.5700 157° South 520 598 39,000  Level FlightAware ADS-B
Wed 01:58:07 AM -24.0620 26.6130 156° South 523 602 39,000  Level FlightAware ADS-B
Wed 01:58:52 AM -24.1630 26.6640 155° Southeast 524 603 39,000  Level FlightAware ADS-B
Wed 01:59:32 AM -24.2500 26.7070 156° South 524 603 39,000  Level FlightAware ADS-B
Wed 02:00:12 AM -24.3390 26.7510 156° South 524 603 39,000  Level FlightAware ADS-B
Wed 02:00:57 AM -24.4370 26.8000 156° South 523 602 39,000 -494 Level FlightAware ADS-B
Wed 02:01:37 AM -24.5250 26.8430 156° South 524 603 38,300 -2,188 Descending FlightAware ADS-B
Wed 02:02:22 AM -24.6260 26.8930 156° South 535 616 35,900 -3,106 Descending FlightAware ADS-B
Wed 02:03:02 AM -24.7130 26.9520 148° Southeast 557 641 33,900 -2,400 Descending FlightAware ADS-B
Wed 02:03:42 AM -24.7840 27.0340 134° Southeast 546 628 32,700 -1,976 Descending FlightAware ADS-B
Wed 02:04:27 AM -24.8600 27.1220 134° Southeast 535 616 31,100 -1,906 Descending FlightAware ADS-B
Wed 02:05:07 AM -24.9280 27.1960 135° Southeast 521 600 30,000 -1,765 Descending FlightAware ADS-B
Wed 02:05:52 AM -25.0040 27.2820 134° Southeast 507 583 28,600 -1,553 Descending FlightAware ADS-B
Wed 02:06:32 AM -25.0700 27.3560 135° Southeast 484 557 27,800 -1,350 Descending FlightAware ADS-B
Wed 02:07:12 AM -25.1320 27.4250 135° Southeast 470 541 26,800 -1,624 Descending FlightAware ADS-B
Wed 02:07:57 AM -25.1990 27.5000 135° Southeast 456 525 25,500 -1,906 Descending FlightAware ADS-B
Wed 02:08:37 AM -25.2560 27.5650 134° Southeast 445 512 24,100 -2,188 Descending FlightAware ADS-B
Wed 02:09:22 AM -25.3210 27.6390 134° Southeast 433 498 22,400 -1,976 Descending FlightAware ADS-B
Wed 02:10:02 AM -25.3630 27.7090 124° Southeast 421 484 21,300 -1,800 Descending FlightAware ADS-B
Wed 02:10:42 AM -25.4030 27.7870 120° Southeast 413 475 20,000 -1,694 Descending FlightAware ADS-B
Wed 02:11:27 AM -25.4430 27.8650 120° Southeast 399 459 18,900 -1,694 Descending FlightAware ADS-B
Wed 02:12:07 AM -25.4820 27.9360 121° Southeast 392 451 17,600 -2,175 Descending FlightAware ADS-B
Wed 02:12:47 AM -25.5280 27.9950 131° Southeast 383 441 16,000 -2,682 Descending FlightAware ADS-B
Wed 02:13:32 AM -25.5810 28.0590 133° Southeast 364 419 13,800 -2,400 Descending FlightAware ADS-B
Wed 02:14:12 AM -25.6260 28.1140 132° Southeast 327 376 12,600 -1,482 Descending FlightAware ADS-B
Wed 02:14:57 AM -25.6680 28.1650 132° Southeast 310 357 11,700 -1,200 Descending FlightAware ADS-B
Wed 02:15:37 AM -25.7120 28.2040 141° Southeast 299 344 10,900 -900 Descending FlightAware ADS-B
Wed 02:16:17 AM -25.7590 28.2340 150° Southeast 278 320 10,500 -857 Descending FlightAware ADS-B
Wed 02:16:47 AM -25.7930 28.2550 151° Southeast 274 315 9,900 -1,100 Descending FlightAware ADS-B
Wed 02:17:17 AM -25.8250 28.2750 151° Southeast 271 312 9,400 -982 Descending FlightAware ADS-B
Wed 02:17:42 AM -25.8520 28.2900 153° Southeast 269 310 9,000 -436 Descending FlightAware ADS-B
Wed 02:18:12 AM -25.8890 28.3050 160° South 251 289 9,000  Level FlightAware ADS-B
Wed 02:18:27 AM -25.9040 28.3110 160° South 237 273 9,000  Level FlightAware ADS-B
Wed 02:18:52 AM -25.9290 28.3190 164° South 205 236 9,000 -327 Level FlightAware ADS-B
Wed 02:19:22 AM -25.9570 28.3130 191° South 197 227 8,700 -800 Descending FlightAware ADS-B
Wed 02:19:52 AM -25.9830 28.3040 197° South 192 221 8,200 -982 Descending FlightAware ADS-B
Wed 02:20:17 AM -26.0030 28.2980 195° South 188 216 7,800 -1,050 Descending FlightAware ADS-B
Wed 02:20:32 AM -26.0170 28.2940 194° South 183 211 7,500 -1,050 Descending FlightAware ADS-B
Wed 02:20:57 AM -26.0360 28.2880 196° South 181 208 7,100 -900 Descending FlightAware ADS-B
Wed 02:21:12 AM -26.0490 28.2840 195° South 182 209 6,900 -933 Descending FlightAware ADS-B
Wed 02:21:42 AM -26.0720 28.2770 195° South 166 191 6,400 -873 Descending FlightAware ADS-B
Wed 02:22:07 AM -26.0890 28.2710 198° South 151 174 6,100 -750 Descending FlightAware ADS-B
Wed 02:22:22 AM -26.1010 28.2680 193° South 150 173 5,900 -720 Descending FlightAware ADS-B
Wed 02:23:22 AM -26.1350 28.2570 196° South 148 170 5,200 -494 Descending FlightAware ADS-B
Wed 02:23:47 AM -26.1500 28.2530 193° South 105 121 5,200  Level FlightAware ADS-B

Login

Don't have an account? Register now (free) for customized features, flight alerts, and more!